createdAt,value
2023-05-14T00:00:08.330Z,98259.44
2023-05-14T00:02:55.941Z,98259.59
2023-05-14T00:05:22.484Z,98260.04
2023-05-14T00:07:48.846Z,98256.02
2023-05-14T00:10:15.134Z,98253.63
2023-05-14T00:12:41.370Z,98251.88
2023-05-14T00:15:07.956Z,98250.34
2023-05-14T00:17:34.482Z,98249.02
2023-05-14T00:20:00.789Z,98247.52
2023-05-14T00:22:27.121Z,98250.52
2023-05-14T00:24:53.429Z,98253.07
2023-05-14T00:27:19.704Z,98248.60
2023-05-14T00:29:45.996Z,98244.97
2023-05-14T00:32:12.302Z,98247.16
2023-05-14T00:34:38.591Z,98248.52
2023-05-14T00:37:04.831Z,98250.08
2023-05-14T00:39:31.156Z,98252.73
2023-05-14T00:41:57.404Z,98253.33
2023-05-14T00:44:23.680Z,98248.02
2023-05-14T00:46:50.083Z,98246.73
2023-05-14T00:49:16.875Z,98247.62
2023-05-14T00:51:43.620Z,98244.19
2023-05-14T00:54:10.197Z,98245.57
2023-05-14T00:56:36.571Z,98249.66
2023-05-14T00:59:03.541Z,98246.16
2023-05-14T01:01:29.979Z,98247.87
2023-05-14T01:03:56.869Z,98248.30
2023-05-14T01:06:45.094Z,98253.70
2023-05-14T01:09:16.891Z,98251.94
2023-05-14T01:11:43.195Z,98254.63
2023-05-14T01:14:28.302Z,98252.73
2023-05-14T01:16:57.201Z,98252.95
2023-05-14T01:19:33.211Z,98253.59
2023-05-14T01:21:59.486Z,98248.05
2023-05-14T01:24:25.903Z,98247.65
2023-05-14T01:26:53.213Z,98246.13
2023-05-14T01:29:21.244Z,98246.21
2023-05-14T01:31:49.235Z,98244.48
2023-05-14T01:34:15.685Z,98243.52
2023-05-14T01:36:42.271Z,98242.27
2023-05-14T01:39:09.725Z,98240.55
2023-05-14T01:41:37.245Z,98243.55
2023-05-14T01:44:03.569Z,98245.55
2023-05-14T01:46:33.014Z,98244.95
2023-05-14T01:48:59.598Z,98245.39
2023-05-14T01:51:26.383Z,98244.70
2023-05-14T01:53:52.634Z,98245.70
2023-05-14T01:56:19.467Z,98241.37
2023-05-14T01:58:45.742Z,98241.73
2023-05-14T02:01:12.440Z,98238.23
2023-05-14T02:03:38.958Z,98236.45
2023-05-14T02:06:05.807Z,98237.11
2023-05-14T02:08:32.193Z,98231.03
2023-05-14T02:10:58.931Z,98226.95
2023-05-14T02:13:25.689Z,98222.21
2023-05-14T02:15:51.969Z,98223.70
2023-05-14T02:18:18.275Z,98224.70
2023-05-14T02:20:45.836Z,98223.53
2023-05-14T02:23:12.159Z,98222.82
2023-05-14T02:25:38.415Z,98220.41
2023-05-14T02:28:04.681Z,98220.82
2023-05-14T02:30:30.912Z,98219.21
2023-05-14T02:32:57.606Z,98216.38
2023-05-14T02:35:23.991Z,98215.86
2023-05-14T02:37:50.289Z,98218.09
2023-05-14T02:40:16.602Z,98218.67
2023-05-14T02:42:42.865Z,98217.32
2023-05-14T02:45:09.321Z,98216.76
2023-05-14T02:47:37.836Z,98220.89
2023-05-14T02:50:04.881Z,98220.67
2023-05-14T02:52:31.272Z,98220.47
2023-05-14T02:54:57.537Z,98217.61
2023-05-14T02:57:23.815Z,98216.33
2023-05-14T02:59:50.201Z,98217.34
2023-05-14T03:02:17.034Z,98217.45
2023-05-14T03:04:43.831Z,98214.73
2023-05-14T03:07:10.090Z,98215.25
2023-05-14T03:09:38.298Z,98209.27
2023-05-14T03:12:05.138Z,98207.98
2023-05-14T03:14:31.398Z,98203.45
2023-05-14T03:16:57.962Z,98199.80
2023-05-14T03:19:24.327Z,98199.64
2023-05-14T03:21:50.813Z,98195.79
2023-05-14T03:24:17.116Z,98192.02
2023-05-14T03:26:43.810Z,98185.98
2023-05-14T03:29:10.079Z,98181.48
2023-05-14T03:31:36.402Z,98177.35
2023-05-14T03:34:02.832Z,98172.41
2023-05-14T03:36:29.103Z,98173.22
2023-05-14T03:38:55.382Z,98177.63
2023-05-14T03:41:22.015Z,98175.30
2023-05-14T03:43:48.301Z,98171.36
2023-05-14T03:46:14.593Z,98167.54
2023-05-14T03:48:40.970Z,98167.78
2023-05-14T03:51:07.346Z,98171.00
2023-05-14T03:53:35.227Z,98175.95
2023-05-14T03:56:01.497Z,98178.09
2023-05-14T03:58:27.808Z,98177.98
2023-05-14T04:00:54.101Z,98181.48
2023-05-14T04:03:20.443Z,98182.02
2023-05-14T04:05:46.782Z,98182.92
2023-05-14T04:08:13.068Z,98177.36
2023-05-14T04:10:39.312Z,98176.02
2023-05-14T04:13:05.628Z,98180.42
2023-05-14T04:15:34.572Z,98183.54
2023-05-14T04:18:01.131Z,98185.21
2023-05-14T04:20:27.622Z,98181.20
2023-05-14T04:22:54.022Z,98170.70
2023-05-14T04:25:20.284Z,98163.48
2023-05-14T04:27:46.505Z,98165.30
2023-05-14T04:30:12.929Z,98166.77
2023-05-14T04:32:40.410Z,98167.77
2023-05-14T04:35:07.043Z,98163.91
2023-05-14T04:37:33.533Z,98164.15
2023-05-14T04:39:59.813Z,98170.00
2023-05-14T04:42:26.186Z,98169.69
2023-05-14T04:44:52.476Z,98170.63
2023-05-14T04:47:18.867Z,98175.40
2023-05-14T04:49:45.203Z,98174.12
2023-05-14T04:52:11.837Z,98174.06
2023-05-14T04:54:38.104Z,98174.07
2023-05-14T04:57:04.466Z,98180.55
2023-05-14T04:59:30.931Z,98175.36
2023-05-14T05:01:57.246Z,98171.27
2023-05-14T05:04:23.626Z,98172.90
2023-05-14T05:06:50.082Z,98174.16
2023-05-14T05:09:19.046Z,98178.06
2023-05-14T05:11:45.281Z,98172.73
2023-05-14T05:14:11.725Z,98170.20
2023-05-14T05:16:37.964Z,98167.67
2023-05-14T05:19:04.248Z,98168.55
2023-05-14T05:21:30.532Z,98166.98
2023-05-14T05:23:57.113Z,98163.73
2023-05-14T05:26:24.155Z,98163.27
2023-05-14T05:28:50.411Z,98161.90
2023-05-14T05:31:19.573Z,98153.08
2023-05-14T05:33:46.155Z,98145.60
2023-05-14T05:36:12.576Z,98142.50
2023-05-14T05:38:38.804Z,98141.26
2023-05-14T05:41:05.013Z,98135.86
2023-05-14T05:43:31.375Z,98133.13
2023-05-14T05:45:57.613Z,98129.61
2023-05-14T05:48:23.882Z,98131.05
2023-05-14T05:50:50.142Z,98130.23
2023-05-14T05:53:16.552Z,98130.24
2023-05-14T05:55:43.054Z,98136.18
2023-05-14T05:58:09.460Z,98134.42
2023-05-14T06:00:35.892Z,98135.95
2023-05-14T06:03:02.236Z,98133.71
2023-05-14T06:05:28.716Z,98131.88
2023-05-14T06:07:55.045Z,98128.80
2023-05-14T06:10:21.472Z,98128.38
2023-05-14T06:12:47.906Z,98130.69
2023-05-14T06:15:14.221Z,98135.34
2023-05-14T06:17:40.604Z,98135.66
2023-05-14T06:20:07.176Z,98137.73
2023-05-14T06:22:33.594Z,98132.14
2023-05-14T06:25:00.212Z,98134.70
2023-05-14T06:27:26.518Z,98127.60
2023-05-14T06:29:52.795Z,98127.41
2023-05-14T06:32:19.108Z,98124.41
2023-05-14T06:34:45.562Z,98119.39
2023-05-14T06:37:11.896Z,98111.17
2023-05-14T06:39:38.528Z,98110.45
2023-05-14T06:42:05.109Z,98109.20
2023-05-14T06:44:31.509Z,98110.45
2023-05-14T06:46:57.795Z,98110.51
2023-05-14T06:49:24.166Z,98110.09
2023-05-14T06:51:50.441Z,98102.20
2023-05-14T06:54:16.807Z,98103.42
2023-05-14T06:56:43.229Z,98097.27
2023-05-14T06:59:09.498Z,98093.25
2023-05-14T07:01:35.832Z,98090.52
2023-05-14T07:04:02.437Z,98092.00
2023-05-14T07:06:28.743Z,98096.16
2023-05-14T07:08:55.018Z,98099.80
2023-05-14T07:11:21.354Z,98096.27
2023-05-14T07:13:47.671Z,98095.10
2023-05-14T07:16:13.960Z,98092.52
2023-05-14T07:18:40.402Z,98092.93
2023-05-14T07:21:06.783Z,98095.71
2023-05-14T07:23:33.537Z,98095.05
2023-05-14T07:25:59.968Z,98095.95
2023-05-14T07:28:26.252Z,98098.80
2023-05-14T07:30:52.633Z,98102.89
2023-05-14T07:33:19.098Z,98107.58
2023-05-14T07:35:45.382Z,98107.50
2023-05-14T07:38:11.691Z,98107.00
2023-05-14T07:40:37.967Z,98113.16
2023-05-14T07:43:04.218Z,98113.60
2023-05-14T07:45:30.520Z,98118.51
2023-05-14T07:47:56.942Z,98120.83
2023-05-14T07:50:23.581Z,98122.91
2023-05-14T07:52:50.000Z,98118.09
2023-05-14T07:55:16.447Z,98121.36
2023-05-14T07:57:42.759Z,98119.59
2023-05-14T08:00:09.187Z,98119.48
2023-05-14T08:02:41.659Z,98111.20
2023-05-14T08:05:08.580Z,98100.00
2023-05-14T08:07:35.018Z,98097.67
2023-05-14T08:10:01.667Z,98091.05
2023-05-14T08:12:28.055Z,98086.09
2023-05-14T08:14:58.534Z,98083.89
2023-05-14T08:17:25.639Z,98082.37
2023-05-14T08:19:52.044Z,98078.93
2023-05-14T08:22:18.348Z,98078.23
2023-05-14T08:24:44.718Z,98073.14
2023-05-14T08:27:11.155Z,98070.83
2023-05-14T08:29:37.517Z,98063.46
2023-05-14T08:32:12.102Z,98063.46
2023-05-14T08:34:48.755Z,98068.06
2023-05-14T08:37:15.024Z,98063.20
2023-05-14T08:39:41.309Z,98056.77
2023-05-14T08:42:09.805Z,98050.72
2023-05-14T08:44:38.577Z,98050.98
2023-05-14T08:47:04.994Z,98052.55
2023-05-14T08:49:41.773Z,98050.75
2023-05-14T08:52:08.778Z,98050.30
2023-05-14T08:54:35.230Z,98049.59
2023-05-14T08:57:04.590Z,98046.90
2023-05-14T08:59:30.947Z,98050.02
2023-05-14T09:01:59.506Z,98046.76
2023-05-14T09:04:26.779Z,98045.04
2023-05-14T09:06:53.689Z,98044.09
2023-05-14T09:09:20.322Z,98044.69
2023-05-14T09:11:49.149Z,98043.73
2023-05-14T09:14:15.968Z,98042.72
2023-05-14T09:16:44.614Z,98041.50
2023-05-14T09:19:12.436Z,98032.40
2023-05-14T09:21:39.479Z,98028.07
2023-05-14T09:24:05.951Z,98028.17
2023-05-14T09:26:33.222Z,98034.70
2023-05-14T09:29:00.730Z,98030.41
2023-05-14T09:31:28.851Z,98032.44
2023-05-14T09:33:55.320Z,98028.16
2023-05-14T09:36:21.607Z,98022.73
2023-05-14T09:38:47.868Z,98020.39
2023-05-14T09:41:14.404Z,98019.35
2023-05-14T09:43:40.682Z,98018.11
2023-05-14T09:46:06.985Z,98018.46
2023-05-14T09:48:33.341Z,98018.38
2023-05-14T09:50:59.630Z,98018.67
2023-05-14T09:53:25.971Z,98015.91
2023-05-14T09:55:52.258Z,98012.98
2023-05-14T09:58:18.596Z,98012.62
2023-05-14T10:00:45.693Z,98008.83
2023-05-14T10:03:12.955Z,98005.20
2023-05-14T10:05:40.206Z,97996.54
2023-05-14T10:08:13.805Z,97988.73
2023-05-14T10:10:40.096Z,97986.16
2023-05-14T10:13:13.593Z,97986.06
2023-05-14T10:15:42.870Z,97987.49
2023-05-14T10:18:11.552Z,97982.65
2023-05-14T10:20:39.431Z,97981.77
2023-05-14T10:23:06.393Z,97978.84
2023-05-14T10:25:34.042Z,97975.61
2023-05-14T10:28:01.173Z,97966.54
2023-05-14T10:30:27.813Z,97960.38
2023-05-14T10:33:13.933Z,97951.23
2023-05-14T10:35:57.312Z,97950.36
2023-05-14T10:38:27.367Z,97951.03
2023-05-14T10:40:54.772Z,97945.43
2023-05-14T10:43:22.111Z,97944.65
2023-05-14T10:45:48.408Z,97944.27
2023-05-14T10:48:14.728Z,97939.48
2023-05-14T10:50:41.248Z,97940.94
2023-05-14T10:53:10.372Z,97936.33
2023-05-14T10:55:38.031Z,97934.27
2023-05-14T10:58:04.381Z,97930.98
2023-05-14T11:00:33.012Z,97929.12
2023-05-14T11:02:59.749Z,97921.66
2023-05-14T11:05:26.066Z,97925.52
2023-05-14T11:07:55.888Z,97930.52
2023-05-14T11:10:22.806Z,97923.61
2023-05-14T11:12:49.854Z,97922.86
2023-05-14T11:15:17.444Z,97922.36
2023-05-14T11:17:44.748Z,97922.30
2023-05-14T11:20:11.337Z,97919.88
2023-05-14T11:22:38.318Z,97921.10
2023-05-14T11:25:04.990Z,97917.66
2023-05-14T11:27:33.084Z,97914.52
2023-05-14T11:29:59.573Z,97912.94
2023-05-14T11:32:26.069Z,97914.36
2023-05-14T11:34:52.595Z,97908.20
2023-05-14T11:37:18.941Z,97909.52
2023-05-14T11:39:46.410Z,97911.02
2023-05-14T11:42:12.804Z,97906.71
2023-05-14T11:44:39.127Z,97908.48
2023-05-14T11:47:05.617Z,97911.51
2023-05-14T11:49:32.508Z,97913.67
2023-05-14T11:51:59.826Z,97912.36
2023-05-14T11:54:26.754Z,97906.23
2023-05-14T11:56:54.171Z,97903.83
2023-05-14T11:59:20.629Z,97903.52
2023-05-14T12:01:49.522Z,97895.23
2023-05-14T12:04:17.543Z,97891.14
2023-05-14T12:06:43.863Z,97885.63
2023-05-14T12:09:12.017Z,97878.27
2023-05-14T12:11:39.463Z,97876.89
2023-05-14T12:14:15.577Z,97871.05
2023-05-14T12:16:43.297Z,97871.35
2023-05-14T12:19:10.426Z,97868.35
2023-05-14T12:21:37.297Z,97861.02
2023-05-14T12:24:03.724Z,97858.05
2023-05-14T12:26:33.086Z,97849.81
2023-05-14T12:29:00.124Z,97848.13
2023-05-14T12:31:29.922Z,97843.13
2023-05-14T12:33:56.508Z,97837.89
2023-05-14T12:36:23.313Z,97823.88
2023-05-14T12:38:50.057Z,97822.73
2023-05-14T12:41:17.114Z,97826.63
2023-05-14T12:43:44.037Z,97830.00
2023-05-14T12:46:10.330Z,97825.36
2023-05-14T12:48:36.670Z,97822.24
2023-05-14T12:51:03.137Z,97818.08
2023-05-14T12:53:29.376Z,97818.14
2023-05-14T12:55:55.750Z,97816.61
2023-05-14T12:58:22.192Z,97816.11
2023-05-14T13:00:48.436Z,97811.37
2023-05-14T13:03:14.770Z,97804.67
2023-05-14T13:05:41.194Z,97800.67
2023-05-14T13:08:08.558Z,97799.74
2023-05-14T13:10:35.083Z,97800.23
2023-05-14T13:13:01.384Z,97804.06
2023-05-14T13:15:27.968Z,97801.97
2023-05-14T13:17:54.407Z,97795.34
2023-05-14T13:20:20.770Z,97790.20
2023-05-14T13:22:47.067Z,97792.99
2023-05-14T13:25:13.353Z,97792.55
2023-05-14T13:27:40.078Z,97790.78
2023-05-14T13:30:06.670Z,97790.56
2023-05-14T13:32:32.940Z,97786.48
2023-05-14T13:34:59.308Z,97790.03
2023-05-14T13:37:25.607Z,97788.57
2023-05-14T13:39:51.955Z,97782.29
2023-05-14T13:42:18.407Z,97773.19
2023-05-14T13:44:44.739Z,97761.20
2023-05-14T13:47:11.059Z,97753.59
2023-05-14T13:49:37.421Z,97755.77
2023-05-14T13:52:04.192Z,97753.98
2023-05-14T13:54:30.557Z,97753.20
2023-05-14T13:56:56.923Z,97751.77
2023-05-14T13:59:23.355Z,97750.43
2023-05-14T14:01:49.665Z,97746.69
2023-05-14T14:04:16.205Z,97741.88
2023-05-14T14:06:42.566Z,97733.98
2023-05-14T14:09:08.853Z,97726.11
2023-05-14T14:11:35.180Z,97718.43
2023-05-14T14:14:01.453Z,97718.04
2023-05-14T14:16:27.939Z,97720.31
2023-05-14T14:18:54.335Z,97717.58
2023-05-14T14:21:20.799Z,97712.67
2023-05-14T14:23:47.104Z,97709.40
2023-05-14T14:26:13.526Z,97703.24
2023-05-14T14:28:39.958Z,97704.56
2023-05-14T14:31:06.270Z,97702.14
2023-05-14T14:33:32.607Z,97698.46
2023-05-14T14:35:58.996Z,97694.75
2023-05-14T14:38:25.355Z,97697.52
2023-05-14T14:40:51.669Z,97697.89
2023-05-14T14:43:18.023Z,97692.98
2023-05-14T14:45:45.234Z,97689.45
2023-05-14T14:48:23.994Z,97689.42
2023-05-14T14:50:50.637Z,97694.61
2023-05-14T14:53:21.130Z,97691.52
2023-05-14T14:55:48.112Z,97683.10
2023-05-14T14:58:14.556Z,97675.47
2023-05-14T15:00:41.427Z,97673.94
2023-05-14T15:03:07.975Z,97669.96
2023-05-14T15:05:34.554Z,97663.45
2023-05-14T15:08:00.886Z,97653.33
2023-05-14T15:10:27.776Z,97646.09
2023-05-14T15:12:57.483Z,97641.79
2023-05-14T15:15:24.248Z,97642.84
2023-05-14T15:17:51.000Z,97642.27
2023-05-14T15:20:17.960Z,97645.76
2023-05-14T15:22:44.271Z,97641.35
2023-05-14T15:25:10.588Z,97643.88
2023-05-14T15:27:36.978Z,97646.02
2023-05-14T15:30:03.528Z,97652.95
2023-05-14T15:32:29.858Z,97654.98
2023-05-14T15:34:56.205Z,97654.27
2023-05-14T15:37:25.362Z,97656.54
2023-05-14T15:39:51.831Z,97650.80
2023-05-14T15:42:18.914Z,97649.11
2023-05-14T15:44:45.175Z,97646.65
2023-05-14T15:47:11.480Z,97641.77
2023-05-14T15:49:37.775Z,97639.98
2023-05-14T15:52:04.225Z,97633.64
2023-05-14T15:54:30.558Z,97629.54
2023-05-14T15:56:56.881Z,97625.92
2023-05-14T15:59:23.143Z,97624.14
2023-05-14T16:01:50.173Z,97624.17
2023-05-14T16:04:19.030Z,97623.86
2023-05-14T16:06:45.337Z,97620.36
2023-05-14T16:09:11.945Z,97615.64
2023-05-14T16:11:38.287Z,97609.15
2023-05-14T16:14:04.682Z,97607.23
2023-05-14T16:16:31.070Z,97599.95
2023-05-14T16:18:58.505Z,97595.37
2023-05-14T16:21:24.902Z,97596.60
2023-05-14T16:23:51.297Z,97590.35
2023-05-14T16:26:17.591Z,97589.21
2023-05-14T16:28:44.004Z,97594.72
2023-05-14T16:31:10.309Z,97596.49
2023-05-14T16:33:36.682Z,97599.77
2023-05-14T16:36:03.201Z,97599.98
2023-05-14T16:38:30.343Z,97595.81
2023-05-14T16:40:57.548Z,97594.63
2023-05-14T16:43:24.408Z,97594.21
2023-05-14T16:45:54.192Z,97592.73
2023-05-14T16:48:23.559Z,97591.16
2023-05-14T16:50:50.777Z,97590.50
2023-05-14T16:53:17.090Z,97586.84
2023-05-14T16:55:46.029Z,97586.17
2023-05-14T16:58:12.703Z,97585.27
2023-05-14T17:00:39.193Z,97584.33
2023-05-14T17:03:09.895Z,97584.86
2023-05-14T17:05:38.431Z,97582.42
2023-05-14T17:08:04.711Z,97583.67
2023-05-14T17:10:31.025Z,97581.36
2023-05-14T17:12:57.412Z,97580.16
2023-05-14T17:15:42.132Z,97576.20
2023-05-14T17:18:08.480Z,97575.45
2023-05-14T17:20:34.883Z,97573.35
2023-05-14T17:23:01.211Z,97568.19
2023-05-14T17:25:27.543Z,97566.23
2023-05-14T17:27:53.944Z,97563.48
2023-05-14T17:30:20.420Z,97560.39
2023-05-14T17:32:48.422Z,97557.27
2023-05-14T17:35:15.991Z,97555.06
2023-05-14T17:37:42.405Z,97554.13
2023-05-14T17:40:09.296Z,97551.22
2023-05-14T17:42:35.574Z,97552.91
2023-05-14T17:45:02.060Z,97548.48
2023-05-14T17:47:28.570Z,97550.42
2023-05-14T17:49:54.948Z,97550.38
2023-05-14T17:52:24.686Z,97546.73
2023-05-14T17:54:51.854Z,97537.30
2023-05-14T17:57:18.169Z,97534.02
2023-05-14T17:59:44.493Z,97528.77
2023-05-14T18:02:10.798Z,97526.70
2023-05-14T18:04:37.237Z,97527.10
2023-05-14T18:07:03.623Z,97534.34
2023-05-14T18:09:29.952Z,97547.10
2023-05-14T18:11:57.059Z,97544.56
2023-05-14T18:14:23.500Z,97542.95
2023-05-14T18:16:50.975Z,97546.56
2023-05-14T18:19:17.454Z,97550.55
2023-05-14T18:21:44.068Z,97536.30
2023-05-14T18:24:10.509Z,97531.64
2023-05-14T18:26:36.936Z,97536.95
2023-05-14T18:29:03.654Z,97539.55
2023-05-14T18:31:30.141Z,97546.80
2023-05-14T18:33:56.586Z,97565.31
2023-05-14T18:36:22.903Z,97567.83
2023-05-14T18:38:49.276Z,97565.41
2023-05-14T18:41:15.885Z,97564.27
2023-05-14T18:43:42.220Z,97569.64
2023-05-14T18:46:08.675Z,97587.22
2023-05-14T18:48:35.125Z,97600.91
2023-05-14T18:51:01.718Z,97609.61
2023-05-14T18:53:28.354Z,97591.32
2023-05-14T18:55:54.851Z,97591.31
2023-05-14T18:58:21.283Z,97590.00
2023-05-14T19:00:47.784Z,97594.35
2023-05-14T19:06:34.454Z,97600.30
2023-05-14T19:09:00.960Z,97605.95
2023-05-14T19:11:27.370Z,97604.71
2023-05-14T19:13:53.792Z,97608.27
2023-05-14T19:16:21.627Z,97604.17
2023-05-14T19:18:48.340Z,97602.31
2023-05-14T19:21:14.824Z,97599.95
2023-05-14T19:23:41.228Z,97603.99
2023-05-14T19:26:07.697Z,97603.23
2023-05-14T19:28:34.955Z,97610.26
2023-05-14T19:31:06.148Z,97603.59
2023-05-14T19:33:32.874Z,97605.35
2023-05-14T19:35:59.856Z,97604.10
2023-05-14T19:38:26.258Z,97601.44
2023-05-14T19:40:52.609Z,97606.01
2023-05-14T19:43:19.074Z,97603.31
2023-05-14T19:45:45.460Z,97603.02
2023-05-14T19:48:12.068Z,97599.83
2023-05-14T19:50:38.601Z,97597.23
2023-05-14T19:53:06.266Z,97589.58
2023-05-14T19:55:32.791Z,97584.91
2023-05-14T19:57:59.122Z,97583.98
2023-05-14T20:00:25.650Z,97581.62
2023-05-14T20:02:52.259Z,97581.50
2023-05-14T20:05:18.762Z,97582.30
2023-05-14T20:07:45.220Z,97580.89
2023-05-14T20:10:11.805Z,97578.46
2023-05-14T20:12:38.164Z,97577.06
2023-05-14T20:15:04.882Z,97571.98
2023-05-14T20:17:31.243Z,97574.63
2023-05-14T20:19:57.622Z,97576.38
2023-05-14T20:22:24.029Z,97573.37
2023-05-14T20:24:50.432Z,97570.35
2023-05-14T20:27:16.769Z,97568.95
2023-05-14T20:29:43.165Z,97566.71
2023-05-14T20:32:09.818Z,97563.54
2023-05-14T20:34:36.167Z,97559.81
2023-05-14T20:37:02.804Z,97553.60
2023-05-14T20:39:29.480Z,97548.27
2023-05-14T20:41:56.162Z,97543.44
2023-05-14T20:44:23.027Z,97542.50
2023-05-14T20:46:49.484Z,97533.75
2023-05-14T20:49:15.946Z,97526.01
2023-05-14T20:51:42.226Z,97525.52
2023-05-14T20:54:08.553Z,97520.61
2023-05-14T20:56:34.872Z,97509.55
2023-05-14T20:59:01.309Z,97501.73
2023-05-14T21:01:27.612Z,97483.57
2023-05-14T21:03:54.104Z,97471.52
2023-05-14T21:06:20.608Z,97465.17
2023-05-14T21:08:46.914Z,97458.72
2023-05-14T21:11:13.298Z,97449.92
2023-05-14T21:13:39.610Z,97441.56
2023-05-14T21:16:06.071Z,97431.11
2023-05-14T21:18:32.451Z,97425.98
2023-05-14T21:20:58.764Z,97422.60
2023-05-14T21:23:25.077Z,97406.65
2023-05-14T21:25:51.421Z,97399.19
2023-05-14T21:28:17.702Z,97398.30
2023-05-14T21:30:44.058Z,97393.71
2023-05-14T21:33:10.404Z,97384.50
2023-05-14T21:35:36.723Z,97385.95
2023-05-14T21:38:03.072Z,97384.44
2023-05-14T21:40:29.345Z,97381.19
2023-05-14T21:42:55.743Z,97382.84
2023-05-14T21:45:23.582Z,97382.42
2023-05-14T21:47:50.537Z,97376.38
2023-05-14T21:50:16.975Z,97372.27
2023-05-14T21:52:43.324Z,97371.50
2023-05-14T21:55:09.752Z,97371.30
2023-05-14T21:57:36.065Z,97370.02
2023-05-14T22:00:02.774Z,97362.38
2023-05-14T22:02:31.525Z,97358.01
2023-05-14T22:04:57.891Z,97351.20
2023-05-14T22:07:24.141Z,97354.70
2023-05-14T22:09:50.377Z,97354.95
2023-05-14T22:12:16.666Z,97346.79
2023-05-14T22:14:42.980Z,97341.37
2023-05-14T22:17:09.277Z,97327.41
2023-05-14T22:19:35.553Z,97322.56
2023-05-14T22:22:01.798Z,97320.30
2023-05-14T22:24:28.100Z,97312.20
2023-05-14T22:26:54.387Z,97315.29
2023-05-14T22:29:20.648Z,97315.13
2023-05-14T22:31:46.947Z,97314.87
2023-05-14T22:34:13.245Z,97312.91
2023-05-14T22:36:39.774Z,97309.59
2023-05-14T22:39:06.024Z,97304.83
2023-05-14T22:41:32.294Z,97298.42
2023-05-14T22:43:58.686Z,97293.10
2023-05-14T22:46:25.126Z,97290.64
2023-05-14T22:48:51.482Z,97293.14
2023-05-14T22:51:17.888Z,97289.74
2023-05-14T22:53:44.329Z,97291.09
2023-05-14T22:56:10.661Z,97291.42
2023-05-14T22:58:36.916Z,97292.56
2023-05-14T23:01:03.180Z,97287.98
2023-05-14T23:03:29.494Z,97284.04
2023-05-14T23:05:55.829Z,97276.12
2023-05-14T23:08:22.081Z,97268.50
2023-05-14T23:10:48.618Z,97273.59
2023-05-14T23:13:14.907Z,97272.59
2023-05-14T23:15:42.075Z,97265.90
2023-05-14T23:18:08.470Z,97254.12
2023-05-14T23:20:34.844Z,97248.08
2023-05-14T23:23:01.124Z,97237.98
2023-05-14T23:25:27.464Z,97231.92
2023-05-14T23:27:53.751Z,97227.52
2023-05-14T23:30:19.999Z,97225.00
2023-05-14T23:32:46.316Z,97220.09
2023-05-14T23:35:12.755Z,97219.73
2023-05-14T23:37:39.643Z,97215.81
2023-05-14T23:40:06.378Z,97208.98
2023-05-14T23:42:32.667Z,97203.54
2023-05-14T23:44:58.954Z,97199.65
2023-05-14T23:47:25.425Z,97200.39
2023-05-14T23:49:51.777Z,97195.44
2023-05-14T23:52:18.069Z,97194.34
2023-05-14T23:54:44.294Z,97197.27
2023-05-14T23:57:10.715Z,97199.17
2023-05-14T23:59:37.123Z,97197.12
